sensor_id;sensor_type;location;lat;lon;timestamp;temperature;humidity
40504;DHT22;42292;49.048;8.374;2022-11-24T00:01:07;9.50;99.90
40504;DHT22;42292;49.048;8.374;2022-11-24T00:03:33;9.60;99.90
40504;DHT22;42292;49.048;8.374;2022-11-24T00:06:09;9.60;99.90
40504;DHT22;42292;49.048;8.374;2022-11-24T00:08:38;9.60;99.90
40504;DHT22;42292;49.048;8.374;2022-11-24T00:11:05;9.60;99.90
40504;DHT22;42292;49.048;8.374;2022-11-24T00:13:33;9.60;99.90
40504;DHT22;42292;49.048;8.374;2022-11-24T00:16:26;9.60;99.90
40504;DHT22;42292;49.048;8.374;2022-11-24T00:18:54;9.60;99.90
40504;DHT22;42292;49.048;8.374;2022-11-24T00:21:23;9.70;99.90
40504;DHT22;42292;49.048;8.374;2022-11-24T00:23:50;9.70;99.90
40504;DHT22;42292;49.048;8.374;2022-11-24T00:26:21;9.70;99.90
40504;DHT22;42292;49.048;8.374;2022-11-24T00:28:50;9.80;99.90
40504;DHT22;42292;49.048;8.374;2022-11-24T00:33:44;9.60;99.90
40504;DHT22;42292;49.048;8.374;2022-11-24T00:36:14;9.70;99.90
40504;DHT22;42292;49.048;8.374;2022-11-24T00:38:39;9.70;99.90
40504;DHT22;42292;49.048;8.374;2022-11-24T00:41:05;9.70;99.90
40504;DHT22;42292;49.048;8.374;2022-11-24T00:43:31;9.70;99.90
40504;DHT22;42292;49.048;8.374;2022-11-24T00:45:59;9.70;99.90
40504;DHT22;42292;49.048;8.374;2022-11-24T00:48:27;9.70;99.90
40504;DHT22;42292;49.048;8.374;2022-11-24T00:51:01;9.80;99.90
40504;DHT22;42292;49.048;8.374;2022-11-24T00:53:28;9.80;99.90
40504;DHT22;42292;49.048;8.374;2022-11-24T00:55:56;9.70;99.90
40504;DHT22;42292;49.048;8.374;2022-11-24T00:58:26;9.70;99.90
40504;DHT22;42292;49.048;8.374;2022-11-24T01:00:54;9.70;99.90
40504;DHT22;42292;49.048;8.374;2022-11-24T01:03:20;9.80;99.90
40504;DHT22;42292;49.048;8.374;2022-11-24T01:05:47;9.70;99.90
40504;DHT22;42292;49.048;8.374;2022-11-24T01:08:14;9.70;99.90
40504;DHT22;42292;49.048;8.374;2022-11-24T01:10:40;9.70;99.90
40504;DHT22;42292;49.048;8.374;2022-11-24T01:13:06;9.90;99.90
40504;DHT22;42292;49.048;8.374;2022-11-24T01:15:34;9.80;99.90
40504;DHT22;42292;49.048;8.374;2022-11-24T01:18:00;9.80;99.90
40504;DHT22;42292;49.048;8.374;2022-11-24T01:20:26;9.80;99.90
40504;DHT22;42292;49.048;8.374;2022-11-24T01:22:52;9.80;99.90
40504;DHT22;42292;49.048;8.374;2022-11-24T01:25:17;9.90;99.90
40504;DHT22;42292;49.048;8.374;2022-11-24T01:27:43;9.70;99.90
40504;DHT22;42292;49.048;8.374;2022-11-24T01:30:09;9.80;99.90
40504;DHT22;42292;49.048;8.374;2022-11-24T01:32:37;9.90;99.90
40504;DHT22;42292;49.048;8.374;2022-11-24T01:35:04;9.90;99.90
40504;DHT22;42292;49.048;8.374;2022-11-24T01:37:30;10.00;99.90
40504;DHT22;42292;49.048;8.374;2022-11-24T01:39:58;9.80;99.90
40504;DHT22;42292;49.048;8.374;2022-11-24T01:42:24;9.80;99.90
40504;DHT22;42292;49.048;8.374;2022-11-24T01:47:50;9.90;99.90
40504;DHT22;42292;49.048;8.374;2022-11-24T01:50:16;9.80;99.90
40504;DHT22;42292;49.048;8.374;2022-11-24T01:52:51;9.70;99.90
40504;DHT22;42292;49.048;8.374;2022-11-24T01:55:21;9.80;99.90
40504;DHT22;42292;49.048;8.374;2022-11-24T01:57:52;9.90;99.90
40504;DHT22;42292;49.048;8.374;2022-11-24T02:00:20;9.70;99.90
40504;DHT22;42292;49.048;8.374;2022-11-24T02:02:47;9.80;99.90
40504;DHT22;42292;49.048;8.374;2022-11-24T02:05:22;9.90;99.90
40504;DHT22;42292;49.048;8.374;2022-11-24T02:07:53;9.70;99.90
40504;DHT22;42292;49.048;8.374;2022-11-24T02:10:20;9.60;99.90
40504;DHT22;42292;49.048;8.374;2022-11-24T02:12:47;9.60;99.90
40504;DHT22;42292;49.048;8.374;2022-11-24T02:15:17;9.70;99.90
40504;DHT22;42292;49.048;8.374;2022-11-24T02:17:46;9.70;99.90
40504;DHT22;42292;49.048;8.374;2022-11-24T02:20:12;9.70;99.90
40504;DHT22;42292;49.048;8.374;2022-11-24T02:22:58;9.60;99.90
40504;DHT22;42292;49.048;8.374;2022-11-24T02:28:47;9.70;99.90
40504;DHT22;42292;49.048;8.374;2022-11-24T02:31:15;9.60;99.90
40504;DHT22;42292;49.048;8.374;2022-11-24T02:33:44;9.50;99.90
40504;DHT22;42292;49.048;8.374;2022-11-24T02:36:09;9.60;99.90
40504;DHT22;42292;49.048;8.374;2022-11-24T02:38:35;9.60;99.90
40504;DHT22;42292;49.048;8.374;2022-11-24T02:41:10;9.60;99.90
40504;DHT22;42292;49.048;8.374;2022-11-24T02:43:43;9.50;99.90
40504;DHT22;42292;49.048;8.374;2022-11-24T02:46:11;9.50;99.90
40504;DHT22;42292;49.048;8.374;2022-11-24T02:48:37;9.40;99.90
40504;DHT22;42292;49.048;8.374;2022-11-24T02:51:04;9.50;99.90
40504;DHT22;42292;49.048;8.374;2022-11-24T02:53:32;9.40;99.90
40504;DHT22;42292;49.048;8.374;2022-11-24T02:55:58;9.30;99.90
40504;DHT22;42292;49.048;8.374;2022-11-24T02:58:23;9.20;99.90
40504;DHT22;42292;49.048;8.374;2022-11-24T03:00:49;9.30;99.90
40504;DHT22;42292;49.048;8.374;2022-11-24T03:03:20;9.20;99.90
40504;DHT22;42292;49.048;8.374;2022-11-24T03:05:49;9.00;99.90
40504;DHT22;42292;49.048;8.374;2022-11-24T03:08:14;9.20;99.90
40504;DHT22;42292;49.048;8.374;2022-11-24T03:10:40;9.00;99.90
40504;DHT22;42292;49.048;8.374;2022-11-24T03:13:10;9.00;99.90
40504;DHT22;42292;49.048;8.374;2022-11-24T03:15:38;9.10;99.90
40504;DHT22;42292;49.048;8.374;2022-11-24T03:18:04;9.10;99.90
40504;DHT22;42292;49.048;8.374;2022-11-24T03:20:34;9.10;99.90
40504;DHT22;42292;49.048;8.374;2022-11-24T03:23:02;9.00;99.90
40504;DHT22;42292;49.048;8.374;2022-11-24T03:25:30;8.90;99.90
40504;DHT22;42292;49.048;8.374;2022-11-24T03:28:00;8.80;99.90
40504;DHT22;42292;49.048;8.374;2022-11-24T03:30:26;8.80;99.90
40504;DHT22;42292;49.048;8.374;2022-11-24T03:32:54;8.70;99.90
40504;DHT22;42292;49.048;8.374;2022-11-24T03:35:21;8.90;99.90
40504;DHT22;42292;49.048;8.374;2022-11-24T03:37:50;8.90;99.90
40504;DHT22;42292;49.048;8.374;2022-11-24T03:40:16;8.90;99.90
40504;DHT22;42292;49.048;8.374;2022-11-24T03:42:42;8.70;99.90
40504;DHT22;42292;49.048;8.374;2022-11-24T03:45:13;8.70;99.90
40504;DHT22;42292;49.048;8.374;2022-11-24T03:47:39;8.80;99.90
40504;DHT22;42292;49.048;8.374;2022-11-24T03:50:07;8.70;99.90
40504;DHT22;42292;49.048;8.374;2022-11-24T03:52:33;8.80;99.90
40504;DHT22;42292;49.048;8.374;2022-11-24T03:54:58;9.00;99.90
40504;DHT22;42292;49.048;8.374;2022-11-24T03:57:24;9.10;99.90
40504;DHT22;42292;49.048;8.374;2022-11-24T03:59:49;9.20;99.90
40504;DHT22;42292;49.048;8.374;2022-11-24T04:02:15;9.10;99.90
40504;DHT22;42292;49.048;8.374;2022-11-24T04:04:41;9.10;99.90
40504;DHT22;42292;49.048;8.374;2022-11-24T04:07:08;9.20;99.90
40504;DHT22;42292;49.048;8.374;2022-11-24T04:09:36;9.20;99.90
40504;DHT22;42292;49.048;8.374;2022-11-24T04:12:02;9.20;99.90
40504;DHT22;42292;49.048;8.374;2022-11-24T04:14:48;9.30;99.90
40504;DHT22;42292;49.048;8.374;2022-11-24T04:17:14;9.20;99.90
40504;DHT22;42292;49.048;8.374;2022-11-24T04:19:42;9.20;99.90
40504;DHT22;42292;49.048;8.374;2022-11-24T04:22:07;9.30;99.90
40504;DHT22;42292;49.048;8.374;2022-11-24T04:24:35;9.40;99.90
40504;DHT22;42292;49.048;8.374;2022-11-24T04:27:01;9.40;99.90
40504;DHT22;42292;49.048;8.374;2022-11-24T04:29:26;9.40;99.90
40504;DHT22;42292;49.048;8.374;2022-11-24T04:31:54;9.60;99.90
40504;DHT22;42292;49.048;8.374;2022-11-24T04:34:20;9.60;99.90
40504;DHT22;42292;49.048;8.374;2022-11-24T04:36:45;9.60;99.90
40504;DHT22;42292;49.048;8.374;2022-11-24T04:39:13;9.60;99.90
40504;DHT22;42292;49.048;8.374;2022-11-24T04:41:38;9.60;99.90
40504;DHT22;42292;49.048;8.374;2022-11-24T04:44:04;9.50;99.90
40504;DHT22;42292;49.048;8.374;2022-11-24T04:46:32;9.50;99.90
40504;DHT22;42292;49.048;8.374;2022-11-24T04:49:02;9.40;99.90
40504;DHT22;42292;49.048;8.374;2022-11-24T04:51:28;9.40;99.90
40504;DHT22;42292;49.048;8.374;2022-11-24T04:53:58;9.60;99.90
40504;DHT22;42292;49.048;8.374;2022-11-24T04:56:26;9.60;99.90
40504;DHT22;42292;49.048;8.374;2022-11-24T04:58:51;9.50;99.90
40504;DHT22;42292;49.048;8.374;2022-11-24T05:01:22;9.50;99.90
40504;DHT22;42292;49.048;8.374;2022-11-24T05:03:47;9.60;99.90
40504;DHT22;42292;49.048;8.374;2022-11-24T05:06:13;9.60;99.90
40504;DHT22;42292;49.048;8.374;2022-11-24T05:08:38;9.60;99.90
40504;DHT22;42292;49.048;8.374;2022-11-24T05:11:05;9.50;99.90
40504;DHT22;42292;49.048;8.374;2022-11-24T05:13:30;9.50;99.90
40504;DHT22;42292;49.048;8.374;2022-11-24T05:15:56;9.60;99.90
40504;DHT22;42292;49.048;8.374;2022-11-24T05:18:28;9.60;99.90
40504;DHT22;42292;49.048;8.374;2022-11-24T05:20:59;9.60;99.90
40504;DHT22;42292;49.048;8.374;2022-11-24T05:23:24;9.50;99.90
40504;DHT22;42292;49.048;8.374;2022-11-24T05:25:50;9.60;99.90
40504;DHT22;42292;49.048;8.374;2022-11-24T05:28:17;9.70;99.90
40504;DHT22;42292;49.048;8.374;2022-11-24T05:30:42;9.60;99.90
40504;DHT22;42292;49.048;8.374;2022-11-24T05:33:12;9.60;99.90
40504;DHT22;42292;49.048;8.374;2022-11-24T05:35:46;9.60;99.90
40504;DHT22;42292;49.048;8.374;2022-11-24T05:38:16;9.60;99.90
40504;DHT22;42292;49.048;8.374;2022-11-24T05:40:42;9.60;99.90
40504;DHT22;42292;49.048;8.374;2022-11-24T05:43:11;9.60;99.90
40504;DHT22;42292;49.048;8.374;2022-11-24T05:45:37;9.60;99.90
40504;DHT22;42292;49.048;8.374;2022-11-24T05:48:07;9.60;99.90
40504;DHT22;42292;49.048;8.374;2022-11-24T05:50:34;9.50;99.90
40504;DHT22;42292;49.048;8.374;2022-11-24T05:53:04;9.50;99.90
40504;DHT22;42292;49.048;8.374;2022-11-24T05:55:31;9.50;99.90
40504;DHT22;42292;49.048;8.374;2022-11-24T05:58:02;9.70;99.90
40504;DHT22;42292;49.048;8.374;2022-11-24T06:00:29;9.60;99.90
40504;DHT22;42292;49.048;8.374;2022-11-24T06:02:58;9.50;99.90
40504;DHT22;42292;49.048;8.374;2022-11-24T06:05:25;9.40;99.90
40504;DHT22;42292;49.048;8.374;2022-11-24T06:07:52;9.30;99.90
40504;DHT22;42292;49.048;8.374;2022-11-24T06:10:21;9.10;99.90
40504;DHT22;42292;49.048;8.374;2022-11-24T06:12:48;8.90;99.90
40504;DHT22;42292;49.048;8.374;2022-11-24T06:15:14;8.80;99.90
40504;DHT22;42292;49.048;8.374;2022-11-24T06:17:42;8.70;99.90
40504;DHT22;42292;49.048;8.374;2022-11-24T06:20:09;8.70;99.90
40504;DHT22;42292;49.048;8.374;2022-11-24T06:22:38;8.60;99.90
40504;DHT22;42292;49.048;8.374;2022-11-24T06:25:03;8.70;99.90
40504;DHT22;42292;49.048;8.374;2022-11-24T06:27:29;8.70;99.90
40504;DHT22;42292;49.048;8.374;2022-11-24T06:29:55;8.70;99.90
40504;DHT22;42292;49.048;8.374;2022-11-24T06:32:23;8.60;99.90
40504;DHT22;42292;49.048;8.374;2022-11-24T06:34:48;8.50;99.90
40504;DHT22;42292;49.048;8.374;2022-11-24T06:37:16;8.60;99.90
40504;DHT22;42292;49.048;8.374;2022-11-24T06:39:44;8.50;99.90
40504;DHT22;42292;49.048;8.374;2022-11-24T06:42:09;8.60;99.90
40504;DHT22;42292;49.048;8.374;2022-11-24T06:44:35;8.50;99.90
40504;DHT22;42292;49.048;8.374;2022-11-24T06:47:00;8.60;99.90
40504;DHT22;42292;49.048;8.374;2022-11-24T06:49:26;8.60;99.90
40504;DHT22;42292;49.048;8.374;2022-11-24T06:51:53;8.60;99.90
40504;DHT22;42292;49.048;8.374;2022-11-24T06:54:19;8.50;99.90
40504;DHT22;42292;49.048;8.374;2022-11-24T06:56:48;8.60;99.90
40504;DHT22;42292;49.048;8.374;2022-11-24T06:59:16;8.60;99.90
40504;DHT22;42292;49.048;8.374;2022-11-24T07:01:42;8.60;99.90
40504;DHT22;42292;49.048;8.374;2022-11-24T07:04:10;8.60;99.90
40504;DHT22;42292;49.048;8.374;2022-11-24T07:06:36;8.70;99.90
40504;DHT22;42292;49.048;8.374;2022-11-24T07:09:02;8.60;99.90
40504;DHT22;42292;49.048;8.374;2022-11-24T07:11:30;8.60;99.90
40504;DHT22;42292;49.048;8.374;2022-11-24T07:13:56;8.60;99.90
40504;DHT22;42292;49.048;8.374;2022-11-24T07:16:27;8.60;99.90
40504;DHT22;42292;49.048;8.374;2022-11-24T07:18:53;8.60;99.90
40504;DHT22;42292;49.048;8.374;2022-11-24T07:21:22;8.50;99.90
40504;DHT22;42292;49.048;8.374;2022-11-24T07:23:54;8.60;99.90
40504;DHT22;42292;49.048;8.374;2022-11-24T07:26:23;8.60;99.90
40504;DHT22;42292;49.048;8.374;2022-11-24T07:28:52;8.50;99.90
40504;DHT22;42292;49.048;8.374;2022-11-24T07:31:20;8.60;99.90
40504;DHT22;42292;49.048;8.374;2022-11-24T07:33:53;8.60;99.90
40504;DHT22;42292;49.048;8.374;2022-11-24T07:36:19;8.60;99.90
40504;DHT22;42292;49.048;8.374;2022-11-24T07:38:50;8.60;99.90
40504;DHT22;42292;49.048;8.374;2022-11-24T07:41:19;8.70;99.90
40504;DHT22;42292;49.048;8.374;2022-11-24T07:43:45;8.70;99.90
40504;DHT22;42292;49.048;8.374;2022-11-24T07:46:13;8.70;99.90
40504;DHT22;42292;49.048;8.374;2022-11-24T07:48:44;8.70;99.90
40504;DHT22;42292;49.048;8.374;2022-11-24T07:51:10;8.70;99.90
40504;DHT22;42292;49.048;8.374;2022-11-24T07:53:36;8.80;99.90
40504;DHT22;42292;49.048;8.374;2022-11-24T07:56:05;8.80;99.90
40504;DHT22;42292;49.048;8.374;2022-11-24T07:58:34;8.90;99.90
40504;DHT22;42292;49.048;8.374;2022-11-24T08:01:10;8.80;99.90
40504;DHT22;42292;49.048;8.374;2022-11-24T08:03:41;8.80;99.90
40504;DHT22;42292;49.048;8.374;2022-11-24T08:06:07;8.80;99.90
40504;DHT22;42292;49.048;8.374;2022-11-24T08:08:35;8.70;99.90
40504;DHT22;42292;49.048;8.374;2022-11-24T08:11:08;8.70;99.90
40504;DHT22;42292;49.048;8.374;2022-11-24T08:13:35;8.70;99.90
40504;DHT22;42292;49.048;8.374;2022-11-24T08:16:06;8.90;99.90
40504;DHT22;42292;49.048;8.374;2022-11-24T08:18:37;8.80;99.90
40504;DHT22;42292;49.048;8.374;2022-11-24T08:21:04;8.80;99.90
40504;DHT22;42292;49.048;8.374;2022-11-24T08:23:30;8.90;99.90
40504;DHT22;42292;49.048;8.374;2022-11-24T08:25:55;8.80;99.90
40504;DHT22;42292;49.048;8.374;2022-11-24T08:28:24;8.90;99.90
40504;DHT22;42292;49.048;8.374;2022-11-24T08:30:52;8.90;99.90
40504;DHT22;42292;49.048;8.374;2022-11-24T08:33:25;8.90;99.90
40504;DHT22;42292;49.048;8.374;2022-11-24T08:35:53;9.00;99.90
40504;DHT22;42292;49.048;8.374;2022-11-24T08:38:18;9.00;99.90
40504;DHT22;42292;49.048;8.374;2022-11-24T08:40:46;9.00;99.90
40504;DHT22;42292;49.048;8.374;2022-11-24T08:43:12;9.10;99.90
40504;DHT22;42292;49.048;8.374;2022-11-24T08:45:39;9.20;99.90
40504;DHT22;42292;49.048;8.374;2022-11-24T08:48:08;9.30;99.90
40504;DHT22;42292;49.048;8.374;2022-11-24T08:50:36;9.30;99.90
40504;DHT22;42292;49.048;8.374;2022-11-24T08:53:01;9.30;99.90
40504;DHT22;42292;49.048;8.374;2022-11-24T08:55:32;9.30;99.90
40504;DHT22;42292;49.048;8.374;2022-11-24T08:58:00;9.30;99.90
40504;DHT22;42292;49.048;8.374;2022-11-24T09:00:25;9.30;99.90
40504;DHT22;42292;49.048;8.374;2022-11-24T09:02:56;9.20;99.90
40504;DHT22;42292;49.048;8.374;2022-11-24T09:05:22;9.30;99.90
40504;DHT22;42292;49.048;8.374;2022-11-24T09:07:51;9.30;99.90
40504;DHT22;42292;49.048;8.374;2022-11-24T09:10:18;9.30;99.90
40504;DHT22;42292;49.048;8.374;2022-11-24T09:12:46;9.40;99.90
40504;DHT22;42292;49.048;8.374;2022-11-24T09:15:15;9.40;99.90
40504;DHT22;42292;49.048;8.374;2022-11-24T09:17:41;9.40;99.90
40504;DHT22;42292;49.048;8.374;2022-11-24T09:20:10;9.40;99.90
40504;DHT22;42292;49.048;8.374;2022-11-24T09:22:35;9.40;99.90
40504;DHT22;42292;49.048;8.374;2022-11-24T09:25:03;9.50;99.90
40504;DHT22;42292;49.048;8.374;2022-11-24T09:27:32;9.50;99.90
40504;DHT22;42292;49.048;8.374;2022-11-24T09:29:57;9.30;99.90
40504;DHT22;42292;49.048;8.374;2022-11-24T09:32:23;9.40;99.90
40504;DHT22;42292;49.048;8.374;2022-11-24T09:34:51;9.40;99.90
40504;DHT22;42292;49.048;8.374;2022-11-24T09:37:20;9.50;99.90
40504;DHT22;42292;49.048;8.374;2022-11-24T09:39:45;9.60;99.90
40504;DHT22;42292;49.048;8.374;2022-11-24T09:42:33;9.40;99.90
40504;DHT22;42292;49.048;8.374;2022-11-24T09:55:40;9.90;99.90
40504;DHT22;42292;49.048;8.374;2022-11-24T10:00:57;10.20;99.90
40504;DHT22;42292;49.048;8.374;2022-11-24T10:03:38;10.30;99.90
40504;DHT22;42292;49.048;8.374;2022-11-24T10:20:11;11.50;99.90
40504;DHT22;42292;49.048;8.374;2022-11-24T10:25:33;11.50;99.90
40504;DHT22;42292;49.048;8.374;2022-11-24T10:28:09;11.30;99.90
40504;DHT22;42292;49.048;8.374;2022-11-24T10:30:36;11.30;99.90
40504;DHT22;42292;49.048;8.374;2022-11-24T10:33:17;11.40;99.90
40504;DHT22;42292;49.048;8.374;2022-11-24T10:35:50;11.60;99.90
40504;DHT22;42292;49.048;8.374;2022-11-24T10:40:51;11.80;99.90
40504;DHT22;42292;49.048;8.374;2022-11-24T10:43:20;11.40;99.90
40504;DHT22;42292;49.048;8.374;2022-11-24T10:45:46;11.30;99.90
40504;DHT22;42292;49.048;8.374;2022-11-24T10:50:45;11.30;99.90
40504;DHT22;42292;49.048;8.374;2022-11-24T10:53:20;11.10;99.90
40504;DHT22;42292;49.048;8.374;2022-11-24T10:56:05;11.40;99.90
40504;DHT22;42292;49.048;8.374;2022-11-24T10:58:36;11.30;99.90
40504;DHT22;42292;49.048;8.374;2022-11-24T11:03:50;11.80;99.90
40504;DHT22;42292;49.048;8.374;2022-11-24T11:06:29;12.00;99.90
40504;DHT22;42292;49.048;8.374;2022-11-24T11:09:18;11.90;99.90
40504;DHT22;42292;49.048;8.374;2022-11-24T11:11:45;12.00;99.90
40504;DHT22;42292;49.048;8.374;2022-11-24T11:14:31;12.50;99.90
40504;DHT22;42292;49.048;8.374;2022-11-24T11:16:57;13.60;99.90
40504;DHT22;42292;49.048;8.374;2022-11-24T11:19:38;13.90;99.90
40504;DHT22;42292;49.048;8.374;2022-11-24T11:24:43;14.60;99.90
40504;DHT22;42292;49.048;8.374;2022-11-24T11:29:46;13.40;99.90
40504;DHT22;42292;49.048;8.374;2022-11-24T11:32:20;12.80;99.90
40504;DHT22;42292;49.048;8.374;2022-11-24T11:34:50;12.60;99.90
40504;DHT22;42292;49.048;8.374;2022-11-24T11:37:24;12.50;99.90
40504;DHT22;42292;49.048;8.374;2022-11-24T11:39:52;12.50;99.90
40504;DHT22;42292;49.048;8.374;2022-11-24T11:47:29;11.70;99.90
40504;DHT22;42292;49.048;8.374;2022-11-24T11:49:58;11.70;99.90
40504;DHT22;42292;49.048;8.374;2022-11-24T11:57:30;11.70;99.90
40504;DHT22;42292;49.048;8.374;2022-11-24T12:00:11;11.80;99.90
40504;DHT22;42292;49.048;8.374;2022-11-24T12:03:04;12.60;99.90
40504;DHT22;42292;49.048;8.374;2022-11-24T12:05:49;14.20;99.90
40504;DHT22;42292;49.048;8.374;2022-11-24T12:11:01;13.50;99.90
40504;DHT22;42292;49.048;8.374;2022-11-24T12:14:04;13.60;99.90
40504;DHT22;42292;49.048;8.374;2022-11-24T12:25:32;22.50;99.60
40504;DHT22;42292;49.048;8.374;2022-11-24T12:30:36;21.60;94.50
40504;DHT22;42292;49.048;8.374;2022-11-24T12:33:36;20.80;95.60
40504;DHT22;42292;49.048;8.374;2022-11-24T12:52:21;18.50;97.60
40504;DHT22;42292;49.048;8.374;2022-11-24T12:54:48;16.90;99.90
40504;DHT22;42292;49.048;8.374;2022-11-24T13:02:32;13.50;99.90
40504;DHT22;42292;49.048;8.374;2022-11-24T13:05:36;13.10;99.90
40504;DHT22;42292;49.048;8.374;2022-11-24T13:08:05;12.60;99.90
40504;DHT22;42292;49.048;8.374;2022-11-24T13:10:32;12.40;99.90
40504;DHT22;42292;49.048;8.374;2022-11-24T13:18:45;13.50;99.90
40504;DHT22;42292;49.048;8.374;2022-11-24T13:29:31;12.90;99.90
40504;DHT22;42292;49.048;8.374;2022-11-24T13:42:13;19.80;95.60
40504;DHT22;42292;49.048;8.374;2022-11-24T13:44:44;17.70;98.20
40504;DHT22;42292;49.048;8.374;2022-11-24T13:49:54;14.30;99.90
40504;DHT22;42292;49.048;8.374;2022-11-24T13:57:45;13.50;99.90
40504;DHT22;42292;49.048;8.374;2022-11-24T14:05:44;13.20;99.90
40504;DHT22;42292;49.048;8.374;2022-11-24T14:08:19;13.00;99.90
40504;DHT22;42292;49.048;8.374;2022-11-24T14:10:48;13.10;99.90
40504;DHT22;42292;49.048;8.374;2022-11-24T14:13:22;13.00;99.90
40504;DHT22;42292;49.048;8.374;2022-11-24T14:18:38;12.50;99.90
40504;DHT22;42292;49.048;8.374;2022-11-24T14:23:50;12.60;99.90
40504;DHT22;42292;49.048;8.374;2022-11-24T14:26:25;12.70;99.90
40504;DHT22;42292;49.048;8.374;2022-11-24T14:28:55;12.80;99.90
40504;DHT22;42292;49.048;8.374;2022-11-24T14:31:26;12.70;99.90
40504;DHT22;42292;49.048;8.374;2022-11-24T14:34:12;12.70;99.90
40504;DHT22;42292;49.048;8.374;2022-11-24T14:36:39;12.50;99.90
40504;DHT22;42292;49.048;8.374;2022-11-24T14:39:09;12.50;99.90
40504;DHT22;42292;49.048;8.374;2022-11-24T14:41:35;12.50;99.90
40504;DHT22;42292;49.048;8.374;2022-11-24T14:46:34;12.30;99.90
40504;DHT22;42292;49.048;8.374;2022-11-24T14:49:01;12.30;99.90
40504;DHT22;42292;49.048;8.374;2022-11-24T14:51:34;12.40;99.90
40504;DHT22;42292;49.048;8.374;2022-11-24T14:54:05;12.30;99.90
40504;DHT22;42292;49.048;8.374;2022-11-24T14:56:37;12.20;99.90
40504;DHT22;42292;49.048;8.374;2022-11-24T14:59:21;12.20;99.90
40504;DHT22;42292;49.048;8.374;2022-11-24T15:01:48;12.00;99.90
40504;DHT22;42292;49.048;8.374;2022-11-24T15:04:17;11.80;99.90
40504;DHT22;42292;49.048;8.374;2022-11-24T15:06:48;11.90;99.90
40504;DHT22;42292;49.048;8.374;2022-11-24T15:09:28;11.90;99.90
40504;DHT22;42292;49.048;8.374;2022-11-24T15:11:54;11.80;99.90
40504;DHT22;42292;49.048;8.374;2022-11-24T15:16:55;11.70;99.90
40504;DHT22;42292;49.048;8.374;2022-11-24T15:19:31;11.60;99.90
40504;DHT22;42292;49.048;8.374;2022-11-24T15:21:57;11.50;99.90
40504;DHT22;42292;49.048;8.374;2022-11-24T15:24:23;11.30;99.90
40504;DHT22;42292;49.048;8.374;2022-11-24T15:26:48;11.10;99.90
40504;DHT22;42292;49.048;8.374;2022-11-24T15:29:14;11.00;99.90
40504;DHT22;42292;49.048;8.374;2022-11-24T15:31:42;10.90;99.90
40504;DHT22;42292;49.048;8.374;2022-11-24T15:34:11;10.70;99.90
40504;DHT22;42292;49.048;8.374;2022-11-24T15:36:40;10.60;99.90
40504;DHT22;42292;49.048;8.374;2022-11-24T15:39:05;10.40;99.90
40504;DHT22;42292;49.048;8.374;2022-11-24T15:41:31;10.30;99.90
40504;DHT22;42292;49.048;8.374;2022-11-24T15:43:58;10.10;99.90
40504;DHT22;42292;49.048;8.374;2022-11-24T15:46:28;10.10;99.90
40504;DHT22;42292;49.048;8.374;2022-11-24T15:48:54;9.90;99.90
40504;DHT22;42292;49.048;8.374;2022-11-24T15:51:21;9.90;99.90
40504;DHT22;42292;49.048;8.374;2022-11-24T15:53:51;9.80;99.90
40504;DHT22;42292;49.048;8.374;2022-11-24T15:58:52;9.70;99.90
40504;DHT22;42292;49.048;8.374;2022-11-24T16:01:21;9.70;99.90
40504;DHT22;42292;49.048;8.374;2022-11-24T16:03:50;9.60;99.90
40504;DHT22;42292;49.048;8.374;2022-11-24T16:06:19;9.40;99.90
40504;DHT22;42292;49.048;8.374;2022-11-24T16:08:47;9.10;99.90
40504;DHT22;42292;49.048;8.374;2022-11-24T16:11:15;8.90;99.90
40504;DHT22;42292;49.048;8.374;2022-11-24T16:13:40;8.70;99.90
40504;DHT22;42292;49.048;8.374;2022-11-24T16:16:06;8.50;99.90
40504;DHT22;42292;49.048;8.374;2022-11-24T16:18:32;8.30;99.90
40504;DHT22;42292;49.048;8.374;2022-11-24T16:20:59;8.30;99.90
40504;DHT22;42292;49.048;8.374;2022-11-24T16:23:25;8.20;99.90
40504;DHT22;42292;49.048;8.374;2022-11-24T16:25:50;8.00;99.90
40504;DHT22;42292;49.048;8.374;2022-11-24T16:28:16;7.90;99.90
40504;DHT22;42292;49.048;8.374;2022-11-24T16:30:47;7.80;99.90
40504;DHT22;42292;49.048;8.374;2022-11-24T16:33:12;7.60;99.90
40504;DHT22;42292;49.048;8.374;2022-11-24T16:35:38;7.60;99.90
40504;DHT22;42292;49.048;8.374;2022-11-24T16:38:17;7.50;99.90
40504;DHT22;42292;49.048;8.374;2022-11-24T16:40:51;7.50;99.90
40504;DHT22;42292;49.048;8.374;2022-11-24T16:43:20;7.50;99.90
40504;DHT22;42292;49.048;8.374;2022-11-24T16:46:31;7.40;99.90
40504;DHT22;42292;49.048;8.374;2022-11-24T16:48:38;7.40;99.90
40504;DHT22;42292;49.048;8.374;2022-11-24T16:51:05;7.40;99.90
40504;DHT22;42292;49.048;8.374;2022-11-24T16:53:31;7.30;99.90
40504;DHT22;42292;49.048;8.374;2022-11-24T16:55:56;7.20;99.90
40504;DHT22;42292;49.048;8.374;2022-11-24T16:58:25;7.10;99.90
40504;DHT22;42292;49.048;8.374;2022-11-24T17:00:51;7.00;99.90
40504;DHT22;42292;49.048;8.374;2022-11-24T17:03:16;7.00;99.90
40504;DHT22;42292;49.048;8.374;2022-11-24T17:05:44;7.10;99.90
40504;DHT22;42292;49.048;8.374;2022-11-24T17:08:20;7.00;99.90
40504;DHT22;42292;49.048;8.374;2022-11-24T17:10:48;7.00;99.90
40504;DHT22;42292;49.048;8.374;2022-11-24T17:13:13;7.20;99.90
40504;DHT22;42292;49.048;8.374;2022-11-24T17:15:41;7.20;99.90
40504;DHT22;42292;49.048;8.374;2022-11-24T17:18:09;7.00;99.90
40504;DHT22;42292;49.048;8.374;2022-11-24T17:20:34;6.90;99.90
40504;DHT22;42292;49.048;8.374;2022-11-24T17:23:02;6.90;99.90
40504;DHT22;42292;49.048;8.374;2022-11-24T17:25:27;6.80;99.90
40504;DHT22;42292;49.048;8.374;2022-11-24T17:27:55;6.80;99.90
40504;DHT22;42292;49.048;8.374;2022-11-24T17:30:21;6.80;99.90
40504;DHT22;42292;49.048;8.374;2022-11-24T17:32:46;6.80;99.90
40504;DHT22;42292;49.048;8.374;2022-11-24T17:35:12;6.80;99.90
40504;DHT22;42292;49.048;8.374;2022-11-24T17:37:40;6.70;99.90
40504;DHT22;42292;49.048;8.374;2022-11-24T17:40:06;6.70;99.90
40504;DHT22;42292;49.048;8.374;2022-11-24T17:42:34;6.60;99.90
40504;DHT22;42292;49.048;8.374;2022-11-24T17:45:03;6.50;99.90
40504;DHT22;42292;49.048;8.374;2022-11-24T17:47:31;6.50;99.90
40504;DHT22;42292;49.048;8.374;2022-11-24T17:49:57;6.40;99.90
40504;DHT22;42292;49.048;8.374;2022-11-24T17:52:22;6.40;99.90
40504;DHT22;42292;49.048;8.374;2022-11-24T17:54:49;6.50;99.90
40504;DHT22;42292;49.048;8.374;2022-11-24T17:57:17;6.40;99.90
40504;DHT22;42292;49.048;8.374;2022-11-24T17:59:43;6.30;99.90
40504;DHT22;42292;49.048;8.374;2022-11-24T18:02:08;6.20;99.90
40504;DHT22;42292;49.048;8.374;2022-11-24T18:04:34;6.10;99.90
40504;DHT22;42292;49.048;8.374;2022-11-24T18:07:02;6.10;99.90
40504;DHT22;42292;49.048;8.374;2022-11-24T18:09:30;6.00;99.90
40504;DHT22;42292;49.048;8.374;2022-11-24T18:11:58;5.90;99.90
40504;DHT22;42292;49.048;8.374;2022-11-24T18:14:23;5.90;99.90
40504;DHT22;42292;49.048;8.374;2022-11-24T18:16:51;5.90;99.90
40504;DHT22;42292;49.048;8.374;2022-11-24T18:19:16;5.90;99.90
40504;DHT22;42292;49.048;8.374;2022-11-24T18:21:42;5.90;99.90